createdAt,value
2023-05-22T00:01:46.768Z,30.30
2023-05-22T00:04:21.196Z,30.30
2023-05-22T00:06:49.148Z,30.30
2023-05-22T00:09:17.017Z,30.30
2023-05-22T00:11:44.823Z,30.30
2023-05-22T00:14:13.680Z,30.30
2023-05-22T00:16:43.214Z,30.30
2023-05-22T00:19:16.571Z,30.30
2023-05-22T00:21:44.787Z,30.30
2023-05-22T00:24:13.282Z,30.30
2023-05-22T00:26:40.968Z,30.30
2023-05-22T00:29:09.400Z,30.30
2023-05-22T00:31:37.087Z,30.30
2023-05-22T00:34:06.094Z,30.30
2023-05-22T00:36:33.817Z,30.30
2023-05-22T00:39:01.483Z,30.30
2023-05-22T00:41:29.491Z,30.30
2023-05-22T00:43:57.168Z,30.30
2023-05-22T00:46:24.871Z,30.30
2023-05-22T00:48:53.493Z,30.30
2023-05-22T00:51:23.341Z,30.30
2023-05-22T00:53:51.750Z,30.30
2023-05-22T00:56:20.073Z,30.30
2023-05-22T00:58:47.893Z,30.20
2023-05-22T01:01:16.163Z,30.20
2023-05-22T01:03:45.150Z,30.30
2023-05-22T01:06:14.188Z,30.20
2023-05-22T01:08:43.526Z,30.20
2023-05-22T01:11:16.297Z,30.20
2023-05-22T01:13:50.427Z,30.20
2023-05-22T01:16:24.970Z,30.20
2023-05-22T01:19:00.868Z,30.20
2023-05-22T01:21:35.182Z,30.20
2023-05-22T01:24:33.603Z,30.20
2023-05-22T01:27:42.944Z,30.20
2023-05-22T01:30:47.056Z,30.20
2023-05-22T01:33:17.239Z,30.20
2023-05-22T01:35:47.429Z,30.20
2023-05-22T01:38:16.508Z,30.20
2023-05-22T01:40:45.638Z,30.20
2023-05-22T01:43:14.281Z,30.20
2023-05-22T01:45:43.342Z,30.20
2023-05-22T01:48:12.390Z,30.20
2023-05-22T01:50:40.906Z,30.20
2023-05-22T01:53:16.561Z,30.20
2023-05-22T01:55:55.873Z,30.20
2023-05-22T01:58:32.546Z,30.20
2023-05-22T02:01:03.586Z,30.20
2023-05-22T02:03:33.334Z,30.20
2023-05-22T02:06:05.956Z,30.20
2023-05-22T02:08:34.238Z,30.10
2023-05-22T02:11:04.153Z,30.20
2023-05-22T02:13:32.155Z,30.20
2023-05-22T02:16:01.995Z,30.10
2023-05-22T02:18:31.086Z,30.10
2023-05-22T02:20:59.067Z,30.10
2023-05-22T02:23:29.530Z,30.10
2023-05-22T02:25:57.516Z,30.10
2023-05-22T02:28:25.205Z,30.10
2023-05-22T02:30:52.959Z,30.10
2023-05-22T02:33:22.124Z,30.10
2023-05-22T02:35:49.773Z,30.10
2023-05-22T02:38:17.438Z,30.10
2023-05-22T02:40:45.374Z,30.10
2023-05-22T02:43:13.021Z,30.10
2023-05-22T02:45:40.667Z,30.10
2023-05-22T02:48:08.376Z,30.10
2023-05-22T02:50:37.555Z,30.10
2023-05-22T02:53:05.423Z,30.10
2023-05-22T02:55:33.088Z,30.10
2023-05-22T02:58:00.739Z,30.10
2023-05-22T03:00:28.406Z,30.10
2023-05-22T03:02:56.212Z,30.10
2023-05-22T03:05:23.968Z,30.00
2023-05-22T03:07:53.276Z,30.00
2023-05-22T03:10:21.149Z,30.00
2023-05-22T03:12:48.809Z,30.00
2023-05-22T03:15:16.897Z,30.00
2023-05-22T03:17:44.748Z,30.00
2023-05-22T03:20:17.066Z,30.00
2023-05-22T03:22:45.091Z,30.00
2023-05-22T03:25:14.126Z,30.00
2023-05-22T03:27:41.990Z,30.00
2023-05-22T03:30:10.141Z,30.00
2023-05-22T03:32:38.396Z,30.00
2023-05-22T03:35:07.247Z,30.00
2023-05-22T03:37:34.946Z,30.00
2023-05-22T03:40:02.618Z,30.00
2023-05-22T03:42:31.616Z,30.00
2023-05-22T03:44:59.267Z,30.00
2023-05-22T03:47:26.982Z,30.00
2023-05-22T03:49:54.695Z,30.00
2023-05-22T03:52:23.090Z,30.00
2023-05-22T03:54:50.730Z,30.00
2023-05-22T03:57:20.014Z,30.00
2023-05-22T03:59:49.136Z,30.00
2023-05-22T04:02:17.393Z,30.00
2023-05-22T04:04:46.479Z,29.90
2023-05-22T04:07:14.287Z,29.90
2023-05-22T04:09:41.962Z,29.90
2023-05-22T04:12:10.020Z,29.90
2023-05-22T04:14:37.686Z,29.90
2023-05-22T04:17:06.791Z,29.90
2023-05-22T04:19:34.613Z,29.90
2023-05-22T04:22:02.341Z,29.90
2023-05-22T04:24:29.991Z,29.90
2023-05-22T04:27:00.301Z,29.90
2023-05-22T04:29:28.552Z,29.90
2023-05-22T04:31:56.213Z,29.90
2023-05-22T04:34:25.575Z,29.90
2023-05-22T04:36:53.242Z,29.90
2023-05-22T04:39:20.979Z,29.90
2023-05-22T04:41:49.083Z,29.90
2023-05-22T04:44:16.975Z,29.90
2023-05-22T04:46:44.752Z,29.90
2023-05-22T04:49:12.452Z,29.90
2023-05-22T04:51:41.449Z,29.90
2023-05-22T04:54:09.146Z,29.90
2023-05-22T04:56:37.518Z,29.90
2023-05-22T04:59:09.252Z,29.90
2023-05-22T05:01:37.876Z,29.90
2023-05-22T05:04:06.114Z,29.90
2023-05-22T05:06:34.729Z,29.90
2023-05-22T05:09:03.943Z,29.90
2023-05-22T05:11:31.596Z,29.90
2023-05-22T05:13:59.301Z,29.90
2023-05-22T05:16:27.201Z,29.90
2023-05-22T05:18:55.639Z,29.90
2023-05-22T05:21:23.428Z,29.90
2023-05-22T05:23:52.001Z,29.90
2023-05-22T05:26:24.018Z,29.90
2023-05-22T05:28:52.362Z,29.90
2023-05-22T05:31:20.361Z,30.00
2023-05-22T05:33:48.868Z,30.00
2023-05-22T05:36:17.164Z,30.00
2023-05-22T05:38:44.799Z,30.00
2023-05-22T05:41:12.495Z,30.00
2023-05-22T05:43:41.523Z,30.00
2023-05-22T05:46:09.305Z,30.00
2023-05-22T05:48:37.037Z,30.10
2023-05-22T05:51:05.068Z,30.10
2023-05-22T05:53:33.070Z,30.10
2023-05-22T05:56:00.836Z,30.10
2023-05-22T05:58:28.519Z,30.10
2023-05-22T06:00:57.620Z,30.10
2023-05-22T06:03:26.099Z,30.20
2023-05-22T06:05:55.758Z,30.20
2023-05-22T06:08:23.587Z,30.20
2023-05-22T06:10:51.601Z,30.20
2023-05-22T06:13:19.278Z,30.20
2023-05-22T06:15:47.188Z,30.20
2023-05-22T06:18:17.282Z,30.30
2023-05-22T06:20:44.970Z,30.30
2023-05-22T06:23:12.647Z,30.30
2023-05-22T06:25:40.715Z,30.30
2023-05-22T06:28:08.409Z,30.30
2023-05-22T06:30:40.031Z,30.30
2023-05-22T06:33:09.031Z,30.30
2023-05-22T06:35:38.162Z,30.40
2023-05-22T06:38:05.890Z,30.40
2023-05-22T06:40:33.524Z,30.40
2023-05-22T06:43:02.904Z,30.40
2023-05-22T06:45:30.584Z,30.40
2023-05-22T06:47:58.272Z,30.40
2023-05-22T06:50:26.029Z,30.40
2023-05-22T06:52:55.224Z,30.40
2023-05-22T06:55:22.964Z,30.40
2023-05-22T06:57:50.970Z,30.40
2023-05-22T07:00:20.956Z,30.50
2023-05-22T07:02:49.478Z,30.50
2023-05-22T07:05:17.315Z,30.50
2023-05-22T07:07:45.144Z,30.60
2023-05-22T07:10:14.737Z,30.60
2023-05-22T07:12:42.405Z,30.60
2023-05-22T07:15:12.234Z,30.60
2023-05-22T07:17:41.727Z,30.60
2023-05-22T07:20:10.672Z,30.60
2023-05-22T07:22:38.430Z,30.60
2023-05-22T07:25:06.922Z,30.60
2023-05-22T07:27:36.048Z,30.60
2023-05-22T07:30:03.904Z,30.60
2023-05-22T07:32:31.631Z,30.60
2023-05-22T07:34:59.335Z,30.60
2023-05-22T07:37:27.023Z,30.60
2023-05-22T07:39:54.718Z,30.60
2023-05-22T07:42:23.618Z,30.60
2023-05-22T07:44:52.860Z,30.60
2023-05-22T07:47:20.589Z,30.70
2023-05-22T07:49:48.279Z,30.60
2023-05-22T07:52:16.027Z,30.70
2023-05-22T07:54:45.239Z,30.70
2023-05-22T07:57:13.515Z,30.70
2023-05-22T07:59:43.672Z,30.60
2023-05-22T08:02:12.747Z,30.60
2023-05-22T08:04:40.577Z,30.60
2023-05-22T08:07:08.345Z,30.60
2023-05-22T08:09:35.994Z,30.60
2023-05-22T08:12:03.740Z,30.60
2023-05-22T08:14:31.639Z,30.60
2023-05-22T08:17:00.318Z,30.60
2023-05-22T08:19:29.492Z,30.60
2023-05-22T08:21:58.474Z,30.60
2023-05-22T08:24:28.426Z,30.60
2023-05-22T08:26:58.214Z,30.60
2023-05-22T08:29:26.003Z,30.60
2023-05-22T08:31:54.130Z,30.60
2023-05-22T08:34:21.995Z,30.60
2023-05-22T08:36:51.051Z,30.60
2023-05-22T08:39:19.311Z,30.60
2023-05-22T08:41:47.677Z,30.60
2023-05-22T08:44:15.521Z,30.60
2023-05-22T08:46:44.187Z,30.60
2023-05-22T08:49:12.246Z,30.50
2023-05-22T08:51:42.218Z,30.50
2023-05-22T08:54:11.239Z,30.50
2023-05-22T08:56:49.389Z,30.50
2023-05-22T08:59:24.430Z,30.50
2023-05-22T09:01:52.790Z,30.50
2023-05-22T09:04:23.695Z,30.50
2023-05-22T09:06:51.593Z,30.50
2023-05-22T09:09:21.219Z,30.50
2023-05-22T09:11:49.008Z,30.50
2023-05-22T09:14:16.968Z,30.50
2023-05-22T09:16:46.630Z,30.50
2023-05-22T09:19:15.056Z,30.50
2023-05-22T09:21:44.379Z,30.50
2023-05-22T09:24:12.401Z,30.50
2023-05-22T09:26:41.890Z,30.50
2023-05-22T09:29:09.733Z,30.50
2023-05-22T09:31:42.211Z,30.50
2023-05-22T09:34:10.755Z,30.50
2023-05-22T09:36:38.510Z,30.50
2023-05-22T09:39:06.458Z,30.50
2023-05-22T09:41:36.552Z,30.50
2023-05-22T09:44:13.802Z,30.50
2023-05-22T09:46:42.542Z,30.50
2023-05-22T09:49:11.112Z,30.50
2023-05-22T09:51:42.894Z,30.50
2023-05-22T09:54:12.322Z,30.50
2023-05-22T09:56:41.999Z,30.40
2023-05-22T09:59:13.875Z,30.50
2023-05-22T10:01:42.644Z,30.50
2023-05-22T10:04:14.435Z,30.50
2023-05-22T10:06:43.756Z,30.50
2023-05-22T10:09:19.265Z,30.50
2023-05-22T10:11:48.488Z,30.50
2023-05-22T10:14:18.052Z,30.50
2023-05-22T10:16:45.942Z,30.50
2023-05-22T10:19:14.156Z,30.50
2023-05-22T10:21:42.973Z,30.40
2023-05-22T10:24:11.400Z,30.50
2023-05-22T10:26:40.099Z,30.40
2023-05-22T10:29:12.533Z,30.50
2023-05-22T10:31:48.514Z,30.50
2023-05-22T10:34:23.839Z,30.40
2023-05-22T10:37:13.145Z,30.40
2023-05-22T10:39:55.433Z,30.40
2023-05-22T10:42:23.175Z,30.50
2023-05-22T10:44:51.052Z,30.40
2023-05-22T10:47:20.970Z,30.50
2023-05-22T10:49:50.728Z,30.50
2023-05-22T10:52:21.868Z,30.50
2023-05-22T10:54:53.604Z,30.50
2023-05-22T10:57:25.064Z,30.50
2023-05-22T11:00:07.404Z,30.50
2023-05-22T11:02:40.366Z,30.50
2023-05-22T11:05:36.528Z,30.50
2023-05-22T11:08:29.014Z,30.40
2023-05-22T11:10:59.077Z,30.40
2023-05-22T11:13:29.333Z,30.50
2023-05-22T11:15:58.253Z,30.50
2023-05-22T11:18:29.774Z,30.50
2023-05-22T11:21:00.598Z,30.50
2023-05-22T11:23:28.552Z,30.50
2023-05-22T11:25:56.302Z,30.50
2023-05-22T11:28:24.081Z,30.50
2023-05-22T11:30:52.979Z,30.50
2023-05-22T11:33:20.824Z,30.50
2023-05-22T11:35:51.763Z,30.50
2023-05-22T11:38:20.284Z,30.50
2023-05-22T11:40:53.177Z,30.50
2023-05-22T11:43:29.864Z,30.50
2023-05-22T11:46:02.134Z,30.50
2023-05-22T11:48:30.268Z,30.50
2023-05-22T11:51:00.037Z,30.50
2023-05-22T11:53:27.763Z,30.50
2023-05-22T11:55:55.569Z,30.50
2023-05-22T11:58:28.075Z,30.50
2023-05-22T12:00:59.089Z,30.50
2023-05-22T12:03:26.843Z,30.50
2023-05-22T12:05:55.303Z,30.50
2023-05-22T12:08:24.847Z,30.50
2023-05-22T12:10:53.717Z,30.50
2023-05-22T12:13:26.183Z,30.60
2023-05-22T12:15:54.873Z,30.60
2023-05-22T12:18:22.705Z,30.60
2023-05-22T12:20:54.354Z,30.60
2023-05-22T12:23:24.934Z,30.60
2023-05-22T12:26:01.485Z,30.60
2023-05-22T12:28:29.261Z,30.60
2023-05-22T12:30:57.176Z,30.60
2023-05-22T12:33:29.034Z,30.60
2023-05-22T12:35:58.498Z,30.60
2023-05-22T12:38:28.482Z,30.60
2023-05-22T12:40:56.688Z,30.60
2023-05-22T12:43:25.392Z,30.60
2023-05-22T12:45:53.111Z,30.60
2023-05-22T12:48:20.812Z,30.60
2023-05-22T12:50:48.667Z,30.60
2023-05-22T12:53:16.624Z,30.60
2023-05-22T12:55:45.655Z,30.60
2023-05-22T12:58:13.406Z,30.60
2023-05-22T13:00:41.322Z,30.60
2023-05-22T13:03:09.392Z,30.60
2023-05-22T13:05:37.134Z,30.60
2023-05-22T13:08:04.874Z,30.60
2023-05-22T13:10:32.560Z,30.60
2023-05-22T13:13:01.578Z,30.60
2023-05-22T13:15:29.560Z,30.60
2023-05-22T13:17:57.308Z,30.60
2023-05-22T13:20:25.084Z,30.60
2023-05-22T13:22:52.776Z,30.60
2023-05-22T13:25:20.525Z,30.60
2023-05-22T13:27:48.215Z,30.60
2023-05-22T13:30:17.292Z,30.60
2023-05-22T13:32:44.985Z,30.70
2023-05-22T13:35:13.202Z,30.60
2023-05-22T13:37:41.145Z,30.60
2023-05-22T13:40:10.270Z,30.60
2023-05-22T13:42:38.407Z,30.60
2023-05-22T13:45:07.074Z,30.60
2023-05-22T13:47:36.361Z,30.70
2023-05-22T13:50:05.257Z,30.70
2023-05-22T13:52:32.978Z,30.70
2023-05-22T13:55:01.222Z,30.70
2023-05-22T13:57:28.857Z,30.70
2023-05-22T13:59:56.605Z,30.70
2023-05-22T14:02:25.185Z,30.70
2023-05-22T14:04:54.295Z,30.70
2023-05-22T14:07:21.971Z,30.70
2023-05-22T14:09:49.785Z,30.70
2023-05-22T14:12:17.486Z,30.70
2023-05-22T14:14:45.169Z,30.70
2023-05-22T14:17:12.848Z,30.70
2023-05-22T14:19:40.586Z,30.70
2023-05-22T14:22:09.596Z,30.70
2023-05-22T14:24:37.289Z,30.70
2023-05-22T14:27:05.454Z,30.70
2023-05-22T14:29:33.176Z,30.70
2023-05-22T14:32:04.142Z,30.70
2023-05-22T14:34:32.318Z,30.70
2023-05-22T14:37:00.013Z,30.70
2023-05-22T14:39:29.017Z,30.70
2023-05-22T14:41:56.908Z,30.70
2023-05-22T14:44:24.551Z,30.80
2023-05-22T14:46:53.500Z,30.80
2023-05-22T14:49:21.249Z,30.80
2023-05-22T14:51:49.097Z,30.80
2023-05-22T14:54:18.967Z,30.80
2023-05-22T14:56:48.041Z,30.80
2023-05-22T14:59:16.017Z,30.80
2023-05-22T15:01:44.628Z,30.80
2023-05-22T15:04:12.457Z,30.80
2023-05-22T15:06:40.150Z,30.80
2023-05-22T15:09:07.958Z,30.80
2023-05-22T15:11:35.622Z,30.80
2023-05-22T15:14:04.652Z,30.80
2023-05-22T15:16:32.327Z,30.80
2023-05-22T15:19:00.175Z,30.80
2023-05-22T15:21:27.986Z,30.80
2023-05-22T15:23:55.638Z,30.80
2023-05-22T15:26:23.319Z,30.80
2023-05-22T15:28:51.192Z,30.80
2023-05-22T15:31:20.322Z,30.80
2023-05-22T15:33:47.993Z,30.80
2023-05-22T15:36:15.906Z,30.80
2023-05-22T15:38:43.784Z,30.80
2023-05-22T15:41:11.466Z,30.80
2023-05-22T15:43:39.189Z,30.80
2023-05-22T15:46:07.034Z,30.80
2023-05-22T15:48:36.199Z,30.80
2023-05-22T15:51:03.965Z,30.80
2023-05-22T15:53:31.676Z,30.80
2023-05-22T15:55:59.419Z,30.80
2023-05-22T15:58:28.452Z,30.80
2023-05-22T16:00:56.261Z,30.80
2023-05-22T16:03:24.214Z,30.80
2023-05-22T16:05:53.308Z,30.80
2023-05-22T16:08:20.952Z,30.80
2023-05-22T16:10:48.665Z,30.80
2023-05-22T16:13:16.646Z,30.80
2023-05-22T16:15:45.046Z,30.80
2023-05-22T16:18:12.939Z,30.90
2023-05-22T16:20:40.760Z,30.90
2023-05-22T16:23:09.882Z,30.90
2023-05-22T16:25:37.834Z,30.80
2023-05-22T16:28:06.494Z,30.90
2023-05-22T16:30:34.182Z,30.80
2023-05-22T16:33:01.915Z,30.80
2023-05-22T16:35:30.180Z,30.90
2023-05-22T16:37:57.829Z,30.90
2023-05-22T16:40:26.876Z,30.90
2023-05-22T16:42:54.640Z,30.90
2023-05-22T16:45:23.138Z,30.90
2023-05-22T16:47:50.969Z,30.90
2023-05-22T16:50:18.897Z,30.90
2023-05-22T16:52:46.560Z,30.90
2023-05-22T16:55:14.245Z,30.90
2023-05-22T16:57:43.726Z,30.90
2023-05-22T17:00:12.151Z,30.90
2023-05-22T17:02:40.053Z,30.90
2023-05-22T17:05:08.648Z,30.90
2023-05-22T17:07:36.693Z,30.90
2023-05-22T17:10:04.602Z,30.90
2023-05-22T17:12:32.340Z,30.90
2023-05-22T17:15:01.329Z,30.90
2023-05-22T17:17:29.036Z,31.00
2023-05-22T17:19:56.746Z,31.00
2023-05-22T17:22:24.424Z,31.00
2023-05-22T17:24:52.712Z,31.00
2023-05-22T17:27:34.399Z,31.00
2023-05-22T17:30:05.975Z,31.00
2023-05-22T17:32:34.032Z,31.00
2023-05-22T17:35:02.731Z,31.00
2023-05-22T17:37:30.556Z,31.00
2023-05-22T17:39:58.277Z,31.00
2023-05-22T17:42:26.068Z,31.00
2023-05-22T17:44:53.766Z,31.00
2023-05-22T17:47:22.923Z,31.00
2023-05-22T17:49:50.664Z,31.00
2023-05-22T17:52:18.367Z,31.00
2023-05-22T17:54:47.034Z,31.00
2023-05-22T17:57:14.668Z,31.00
2023-05-22T17:59:42.390Z,31.00
2023-05-22T18:02:10.048Z,31.00
2023-05-22T18:04:39.077Z,31.00
2023-05-22T18:07:06.990Z,31.00
2023-05-22T18:09:34.756Z,31.00
2023-05-22T18:12:04.104Z,31.00
2023-05-22T18:14:31.880Z,31.00
2023-05-22T18:16:59.770Z,31.00
2023-05-22T18:19:27.527Z,31.00
2023-05-22T18:21:56.724Z,31.00
2023-05-22T18:24:25.272Z,31.00
2023-05-22T18:26:54.700Z,31.00
2023-05-22T18:29:22.394Z,31.00
2023-05-22T18:31:50.138Z,31.00
2023-05-22T18:34:17.842Z,31.00
2023-05-22T18:36:46.201Z,31.00
2023-05-22T18:39:15.266Z,31.00
2023-05-22T18:41:42.933Z,31.10
2023-05-22T18:44:10.630Z,31.00
2023-05-22T18:46:38.352Z,31.00
2023-05-22T18:49:06.198Z,31.00
2023-05-22T18:51:33.934Z,31.00
2023-05-22T18:54:01.647Z,31.10
2023-05-22T18:56:31.042Z,31.00
2023-05-22T18:58:58.710Z,31.00
2023-05-22T19:01:26.440Z,31.00
2023-05-22T19:03:54.171Z,31.00
2023-05-22T19:06:23.078Z,31.00
2023-05-22T19:08:50.751Z,31.00
2023-05-22T19:11:18.529Z,31.00
2023-05-22T19:13:47.574Z,31.00
2023-05-22T19:16:15.532Z,31.00
2023-05-22T19:18:43.446Z,31.00
2023-05-22T19:21:11.191Z,31.00
2023-05-22T19:23:39.017Z,31.00
2023-05-22T19:26:06.867Z,31.00
2023-05-22T19:28:34.640Z,31.00
2023-05-22T19:31:04.572Z,31.00
2023-05-22T19:33:32.407Z,31.00
2023-05-22T19:36:00.419Z,31.00
2023-05-22T19:38:28.127Z,31.00
2023-05-22T19:40:55.844Z,31.00
2023-05-22T19:43:23.680Z,31.00
2023-05-22T19:45:51.506Z,31.00
2023-05-22T19:48:21.416Z,31.00
2023-05-22T19:50:49.216Z,31.00
2023-05-22T19:53:17.046Z,31.00
2023-05-22T19:55:44.749Z,31.00
2023-05-22T19:58:12.449Z,31.00
2023-05-22T20:00:41.117Z,31.00
2023-05-22T20:03:09.170Z,31.00
2023-05-22T20:05:38.650Z,31.00
2023-05-22T20:08:07.527Z,31.00
2023-05-22T20:10:35.292Z,31.00
2023-05-22T20:13:04.777Z,31.00
2023-05-22T20:15:33.064Z,31.00
2023-05-22T20:18:02.509Z,31.00
2023-05-22T20:20:30.379Z,31.00
2023-05-22T20:22:59.580Z,31.00
2023-05-22T20:25:27.328Z,31.00
2023-05-22T20:27:55.300Z,31.00
2023-05-22T20:30:23.018Z,31.00
2023-05-22T20:32:51.915Z,31.00
2023-05-22T20:35:20.188Z,31.00
2023-05-22T20:37:47.970Z,31.00
2023-05-22T20:40:17.421Z,31.00
2023-05-22T20:42:46.143Z,31.00
2023-05-22T20:45:16.058Z,31.00
2023-05-22T20:47:44.297Z,31.00
2023-05-22T20:50:12.264Z,31.00
2023-05-22T20:52:39.934Z,31.00
2023-05-22T20:55:08.657Z,31.00
2023-05-22T20:57:37.672Z,31.00
2023-05-22T21:00:08.795Z,31.00
2023-05-22T21:02:36.801Z,31.00
2023-05-22T21:05:04.678Z,31.00
2023-05-22T21:07:32.344Z,31.00
2023-05-22T21:09:59.973Z,31.00
2023-05-22T21:12:28.045Z,31.10
2023-05-22T21:14:57.164Z,31.10
2023-05-22T21:17:25.403Z,31.10
2023-05-22T21:19:53.203Z,31.10
2023-05-22T21:22:20.943Z,31.10
2023-05-22T21:24:49.048Z,31.10
2023-05-22T21:27:16.712Z,31.10
2023-05-22T21:29:44.409Z,31.10
2023-05-22T21:32:13.440Z,31.10
2023-05-22T21:34:41.112Z,31.10
2023-05-22T21:37:09.138Z,31.10
2023-05-22T21:39:36.821Z,31.10
2023-05-22T21:42:04.638Z,31.10
2023-05-22T21:44:32.287Z,31.10
2023-05-22T21:47:00.267Z,31.10
2023-05-22T21:49:29.332Z,31.10
2023-05-22T21:51:57.606Z,31.10
2023-05-22T21:54:25.301Z,31.10
2023-05-22T21:56:53.316Z,31.10
2023-05-22T21:59:21.093Z,31.10
2023-05-22T22:01:49.451Z,31.10
2023-05-22T22:04:17.182Z,31.10
2023-05-22T22:06:46.584Z,31.10
2023-05-22T22:09:14.343Z,31.10
2023-05-22T22:11:42.429Z,31.10
2023-05-22T22:14:10.061Z,31.20
2023-05-22T22:16:37.786Z,31.20
2023-05-22T22:19:06.036Z,31.20
2023-05-22T22:21:34.361Z,31.20
2023-05-22T22:24:03.623Z,31.20
2023-05-22T22:26:32.202Z,31.20
2023-05-22T22:29:00.145Z,31.20
2023-05-22T22:31:27.979Z,31.20
2023-05-22T22:33:55.934Z,31.20
2023-05-22T22:36:24.272Z,31.20
2023-05-22T22:38:52.034Z,31.20
2023-05-22T22:41:21.436Z,31.20
2023-05-22T22:43:49.111Z,31.20
2023-05-22T22:46:16.871Z,31.20
2023-05-22T22:48:44.600Z,31.20
2023-05-22T22:51:12.280Z,31.30
2023-05-22T22:53:40.137Z,31.30
2023-05-22T22:56:07.877Z,31.30
2023-05-22T22:58:36.941Z,31.30
2023-05-22T23:01:05.197Z,31.30
2023-05-22T23:03:33.726Z,31.30
2023-05-22T23:06:01.437Z,31.30
2023-05-22T23:08:29.113Z,31.30
2023-05-22T23:10:56.740Z,31.30
2023-05-22T23:13:24.481Z,31.30
2023-05-22T23:15:53.576Z,31.30
2023-05-22T23:18:22.302Z,31.30
2023-05-22T23:20:50.179Z,31.30
2023-05-22T23:23:17.884Z,31.30
2023-05-22T23:25:45.605Z,31.30
2023-05-22T23:28:13.302Z,31.30
2023-05-22T23:30:40.983Z,31.30
2023-05-22T23:33:10.276Z,31.30
2023-05-22T23:35:38.124Z,31.30
2023-05-22T23:38:05.850Z,31.30
2023-05-22T23:40:33.554Z,31.30
2023-05-22T23:43:01.364Z,31.40
2023-05-22T23:45:29.037Z,31.30
2023-05-22T23:47:56.738Z,31.30
2023-05-22T23:50:25.952Z,31.40
2023-05-22T23:52:54.097Z,31.40
2023-05-22T23:55:21.817Z,31.40
2023-05-22T23:57:49.971Z,31.30
